createdAt,value
2022-09-24T00:00:56.870Z,734.00
2022-09-24T00:01:56.803Z,734.00
2022-09-24T00:02:56.753Z,735.00
2022-09-24T00:03:56.811Z,737.00
2022-09-24T00:04:56.648Z,737.00
2022-09-24T00:05:57.770Z,738.00
2022-09-24T00:06:56.729Z,736.00
2022-09-24T00:07:56.684Z,734.00
2022-09-24T00:08:56.760Z,733.00
2022-09-24T00:09:56.843Z,733.00
2022-09-24T00:10:56.730Z,730.00
2022-09-24T00:11:56.650Z,730.00
2022-09-24T00:12:56.569Z,729.00
2022-09-24T00:13:56.693Z,726.00
2022-09-24T00:14:56.531Z,729.00
2022-09-24T00:16:17.729Z,729.00
2022-09-24T00:16:56.509Z,729.00
2022-09-24T00:17:56.650Z,731.00
2022-09-24T00:18:56.670Z,733.00
2022-09-24T00:19:56.539Z,736.00
2022-09-24T00:20:56.461Z,732.00
2022-09-24T00:21:57.566Z,735.00
2022-09-24T00:22:56.414Z,732.00
2022-09-24T00:23:57.610Z,736.00
2022-09-24T00:24:56.408Z,736.00
2022-09-24T00:25:56.399Z,736.00
2022-09-24T00:26:56.468Z,733.00
2022-09-24T00:28:17.520Z,736.00
2022-09-24T00:28:56.450Z,733.00
2022-09-24T00:29:56.470Z,733.00
2022-09-24T00:30:56.330Z,735.00
2022-09-24T00:31:56.591Z,734.00
2022-09-24T00:32:56.308Z,734.00
2022-09-24T00:33:56.473Z,738.00
2022-09-24T00:34:56.276Z,736.00
2022-09-24T00:35:56.460Z,736.00
2022-09-24T00:36:56.372Z,737.00
2022-09-24T00:37:57.487Z,737.00
2022-09-24T00:38:56.260Z,739.00
2022-09-24T00:39:58.392Z,738.00
2022-09-24T00:40:56.167Z,735.00
2022-09-24T00:41:56.414Z,736.00
2022-09-24T00:42:56.139Z,736.00
2022-09-24T00:43:57.284Z,737.00
2022-09-24T00:44:56.252Z,735.00
2022-09-24T00:45:57.313Z,736.00
2022-09-24T00:46:56.260Z,735.00
2022-09-24T00:47:56.199Z,732.00
2022-09-24T00:48:56.183Z,731.00
2022-09-24T00:49:56.218Z,734.00
2022-09-24T00:50:56.068Z,734.00
2022-09-24T00:51:56.176Z,737.00
2022-09-24T00:52:56.038Z,737.00
2022-09-24T00:53:56.188Z,736.00
2022-09-24T00:54:56.017Z,734.00
2022-09-24T00:55:58.159Z,730.00
2022-09-24T00:56:56.169Z,729.00
2022-09-24T00:57:56.158Z,732.00
2022-09-24T00:58:55.991Z,732.00
2022-09-24T00:59:56.096Z,730.00
2022-09-24T01:00:55.960Z,731.00
2022-09-24T01:01:56.230Z,729.00
2022-09-24T01:02:55.997Z,730.00
2022-09-24T01:03:56.108Z,728.00
2022-09-24T01:04:56.734Z,728.00
2022-09-24T01:05:55.950Z,727.00
2022-09-24T01:06:56.036Z,728.00
2022-09-24T01:07:57.059Z,732.00
2022-09-24T01:08:55.872Z,733.00
2022-09-24T01:09:56.077Z,735.00
2022-09-24T01:10:55.795Z,736.00
2022-09-24T01:11:55.818Z,738.00
2022-09-24T01:12:55.803Z,741.00
2022-09-24T01:13:56.957Z,741.00
2022-09-24T01:14:55.947Z,739.00
2022-09-24T01:15:55.959Z,741.00
2022-09-24T01:16:55.696Z,743.00
2022-09-24T01:17:55.975Z,743.00
2022-09-24T01:18:55.677Z,740.00
2022-09-24T01:19:56.894Z,742.00
2022-09-24T01:20:55.808Z,738.00
2022-09-24T01:21:55.686Z,738.00
2022-09-24T01:22:55.762Z,742.00
2022-09-24T01:23:55.752Z,741.00
2022-09-24T01:24:55.598Z,743.00
2022-09-24T01:25:55.758Z,741.00
2022-09-24T01:26:55.589Z,738.00
2022-09-24T01:27:56.725Z,742.00
2022-09-24T01:28:55.644Z,746.00
2022-09-24T01:29:55.768Z,745.00
2022-09-24T01:30:55.657Z,748.00
2022-09-24T01:31:55.659Z,749.00
2022-09-24T01:32:55.754Z,745.00
2022-09-24T01:33:55.596Z,742.00
2022-09-24T01:34:55.457Z,737.00
2022-09-24T01:35:55.663Z,741.00
2022-09-24T01:36:55.495Z,740.00
2022-09-24T01:37:55.635Z,739.00
2022-09-24T01:38:55.567Z,739.00
2022-09-24T01:39:55.518Z,738.00
2022-09-24T01:40:55.664Z,737.00
2022-09-24T01:41:55.435Z,738.00
2022-09-24T01:42:55.371Z,737.00
2022-09-24T01:43:55.475Z,740.00
2022-09-24T01:44:55.358Z,741.00
2022-09-24T01:45:55.631Z,742.00
2022-09-24T01:46:55.350Z,741.00
2022-09-24T01:47:55.471Z,738.00
2022-09-24T01:48:55.344Z,739.00
2022-09-24T01:49:55.401Z,739.00
2022-09-24T01:50:55.418Z,740.00
2022-09-24T01:51:55.314Z,740.00
2022-09-24T01:52:55.406Z,736.00
2022-09-24T01:53:55.388Z,736.00
2022-09-24T01:54:55.205Z,734.00
2022-09-24T01:55:55.411Z,735.00
2022-09-24T01:56:55.204Z,733.00
2022-09-24T01:58:16.413Z,732.00
2022-09-24T01:58:55.333Z,729.00
2022-09-24T01:59:55.473Z,729.00
2022-09-24T02:00:55.177Z,726.00
2022-09-24T02:01:55.272Z,723.00
2022-09-24T02:02:55.114Z,723.00
2022-09-24T02:03:55.358Z,722.00
2022-09-24T02:04:55.072Z,718.00
2022-09-24T02:05:56.184Z,720.00
2022-09-24T02:06:55.073Z,721.00
2022-09-24T02:07:55.190Z,725.00
2022-09-24T02:08:55.043Z,727.00
2022-09-24T02:09:55.243Z,731.00
2022-09-24T02:10:55.124Z,731.00
2022-09-24T02:11:55.071Z,728.00
2022-09-24T02:12:55.004Z,731.00
2022-09-24T02:13:55.108Z,731.00
2022-09-24T02:14:54.962Z,730.00
2022-09-24T02:15:55.317Z,732.00
2022-09-24T02:16:54.922Z,732.00
2022-09-24T02:17:55.143Z,731.00
2022-09-24T02:18:55.064Z,730.00
2022-09-24T02:19:55.014Z,728.00
2022-09-24T02:20:55.042Z,729.00
2022-09-24T02:21:56.067Z,729.00
2022-09-24T02:22:54.954Z,728.00
2022-09-24T02:23:54.980Z,731.00
2022-09-24T02:24:54.856Z,731.00
2022-09-24T02:25:54.953Z,728.00
2022-09-24T02:26:54.831Z,728.00
2022-09-24T02:27:54.851Z,729.00
2022-09-24T02:28:54.820Z,727.00
2022-09-24T02:29:54.849Z,728.00
2022-09-24T02:30:54.912Z,730.00
2022-09-24T02:31:55.716Z,735.00
2022-09-24T02:32:54.900Z,736.00
2022-09-24T02:33:54.800Z,734.00
2022-09-24T02:34:54.742Z,733.00
2022-09-24T02:35:54.791Z,733.00
2022-09-24T02:36:54.653Z,732.00
2022-09-24T02:37:54.830Z,730.00
2022-09-24T02:38:54.680Z,734.00
2022-09-24T02:39:56.762Z,737.00
2022-09-24T02:40:54.709Z,733.00
2022-09-24T02:41:54.892Z,735.00
2022-09-24T02:42:54.771Z,735.00
2022-09-24T02:43:56.732Z,732.00
2022-09-24T02:44:54.659Z,729.00
2022-09-24T02:45:54.668Z,730.00
2022-09-24T02:46:54.625Z,733.00
2022-09-24T02:47:55.780Z,735.00
2022-09-24T02:48:54.490Z,736.00
2022-09-24T02:49:54.771Z,737.00
2022-09-24T02:50:54.492Z,738.00
2022-09-24T02:51:55.599Z,737.00
2022-09-24T02:52:54.500Z,738.00
2022-09-24T02:53:54.581Z,738.00
2022-09-24T02:54:54.512Z,737.00
2022-09-24T02:55:54.691Z,740.00
2022-09-24T02:56:54.549Z,736.00
2022-09-24T02:57:54.530Z,735.00
2022-09-24T02:58:54.492Z,738.00
2022-09-24T02:59:54.511Z,737.00
2022-09-24T03:00:54.341Z,739.00
2022-09-24T03:01:55.644Z,736.00
2022-09-24T03:02:54.632Z,736.00
2022-09-24T03:03:54.379Z,734.00
2022-09-24T03:04:54.280Z,734.00
2022-09-24T03:05:54.378Z,736.00
2022-09-24T03:06:54.300Z,737.00
2022-09-24T03:07:54.380Z,739.00
2022-09-24T03:08:54.412Z,739.00
2022-09-24T03:09:54.332Z,739.00
2022-09-24T03:10:54.212Z,736.00
2022-09-24T03:11:54.316Z,737.00
2022-09-24T03:12:54.181Z,736.00
2022-09-24T03:13:54.430Z,736.00
2022-09-24T03:14:54.548Z,735.00
2022-09-24T03:15:54.361Z,738.00
2022-09-24T03:16:54.128Z,739.00
2022-09-24T03:17:54.165Z,739.00
2022-09-24T03:18:54.104Z,739.00
2022-09-24T03:19:54.216Z,739.00
2022-09-24T03:20:54.136Z,738.00
2022-09-24T03:21:54.330Z,737.00
2022-09-24T03:22:54.117Z,736.00
2022-09-24T03:23:54.089Z,734.00
2022-09-24T03:24:54.019Z,735.00
2022-09-24T03:25:54.100Z,736.00
2022-09-24T03:26:54.017Z,737.00
2022-09-24T03:27:54.205Z,742.00
2022-09-24T03:28:54.088Z,741.00
2022-09-24T03:29:54.028Z,743.00
2022-09-24T03:30:54.003Z,741.00
2022-09-24T03:31:54.083Z,741.00
2022-09-24T03:32:53.952Z,743.00
2022-09-24T03:33:54.059Z,744.00
2022-09-24T03:34:53.886Z,745.00
2022-09-24T03:35:54.035Z,744.00
2022-09-24T03:36:53.987Z,741.00
2022-09-24T03:37:53.877Z,742.00
2022-09-24T03:38:53.977Z,739.00
2022-09-24T03:39:53.897Z,740.00
2022-09-24T03:40:53.909Z,741.00
2022-09-24T03:41:53.956Z,745.00
2022-09-24T03:42:53.795Z,744.00
2022-09-24T03:43:53.818Z,743.00
2022-09-24T03:44:53.866Z,742.00
2022-09-24T03:45:53.855Z,740.00
2022-09-24T03:46:53.906Z,739.00
2022-09-24T03:47:53.816Z,739.00
2022-09-24T03:48:53.707Z,740.00
2022-09-24T03:49:53.896Z,741.00
2022-09-24T03:50:53.756Z,742.00
2022-09-24T03:51:53.778Z,742.00
2022-09-24T03:52:53.655Z,741.00
2022-09-24T03:53:53.847Z,742.00
2022-09-24T03:54:53.726Z,741.00
2022-09-24T03:55:53.706Z,740.00
2022-09-24T03:56:53.696Z,738.00
2022-09-24T03:57:53.717Z,738.00
2022-09-24T03:58:53.616Z,737.00
2022-09-24T03:59:53.630Z,740.00
2022-09-24T04:00:53.649Z,743.00
2022-09-24T04:01:53.721Z,743.00
2022-09-24T04:02:53.634Z,745.00
2022-09-24T04:03:54.584Z,745.00
2022-09-24T04:04:53.588Z,741.00
2022-09-24T04:05:53.576Z,740.00
2022-09-24T04:06:53.484Z,742.00
2022-09-24T04:07:53.538Z,742.00
2022-09-24T04:08:53.596Z,740.00
2022-09-24T04:09:53.643Z,735.00
2022-09-24T04:10:53.414Z,738.00
2022-09-24T04:11:53.635Z,739.00
2022-09-24T04:12:53.474Z,735.00
2022-09-24T04:13:53.485Z,737.00
2022-09-24T04:14:53.395Z,736.00
2022-09-24T04:15:54.494Z,738.00
2022-09-24T04:16:53.434Z,740.00
2022-09-24T04:17:53.353Z,744.00
2022-09-24T04:18:53.324Z,743.00
2022-09-24T04:19:53.495Z,743.00
2022-09-24T04:20:53.314Z,745.00
2022-09-24T04:21:53.446Z,744.00
2022-09-24T04:22:53.414Z,744.00
2022-09-24T04:23:54.324Z,746.00
2022-09-24T04:24:53.273Z,746.00
2022-09-24T04:25:53.313Z,743.00
2022-09-24T04:26:53.237Z,745.00
2022-09-24T04:27:53.323Z,744.00
2022-09-24T04:28:53.185Z,742.00
2022-09-24T04:29:54.273Z,742.00
2022-09-24T04:30:53.303Z,742.00
2022-09-24T04:31:53.296Z,742.00
2022-09-24T04:32:53.163Z,742.00
2022-09-24T04:33:53.270Z,738.00
2022-09-24T04:34:53.114Z,736.00
2022-09-24T04:35:53.410Z,738.00
2022-09-24T04:36:53.245Z,740.00
2022-09-24T04:37:53.173Z,742.00
2022-09-24T04:38:53.074Z,742.00
2022-09-24T04:39:53.200Z,743.00
2022-09-24T04:40:53.169Z,745.00
2022-09-24T04:41:53.123Z,745.00
2022-09-24T04:42:53.012Z,745.00
2022-09-24T04:43:53.111Z,746.00
2022-09-24T04:44:56.130Z,743.00
2022-09-24T04:45:53.045Z,747.00
2022-09-24T04:46:52.980Z,746.00
2022-09-24T04:47:53.152Z,743.00
2022-09-24T04:48:52.984Z,744.00
2022-09-24T04:49:52.973Z,743.00
2022-09-24T04:50:52.945Z,743.00
2022-09-24T04:51:53.036Z,741.00
2022-09-24T04:52:52.873Z,742.00
2022-09-24T04:53:52.911Z,743.00
2022-09-24T04:54:52.960Z,743.00
2022-09-24T04:55:52.958Z,743.00
2022-09-24T04:56:52.869Z,743.00
2022-09-24T04:57:52.862Z,744.00
2022-09-24T04:58:52.880Z,747.00
2022-09-24T04:59:52.941Z,749.00
2022-09-24T05:00:52.800Z,752.00
2022-09-24T05:01:52.996Z,749.00
2022-09-24T05:02:52.857Z,750.00
2022-09-24T05:03:52.762Z,744.00
2022-09-24T05:04:52.730Z,746.00
2022-09-24T05:05:52.790Z,746.00
2022-09-24T05:06:52.711Z,742.00
2022-09-24T05:07:52.695Z,741.00
2022-09-24T05:08:52.773Z,741.00
2022-09-24T05:09:52.712Z,743.00
2022-09-24T05:10:52.640Z,745.00
2022-09-24T05:11:52.790Z,745.00
2022-09-24T05:12:52.750Z,744.00
2022-09-24T05:13:52.640Z,746.00
2022-09-24T05:14:52.686Z,745.00
2022-09-24T05:15:52.802Z,745.00
2022-09-24T05:16:52.569Z,742.00
2022-09-24T05:17:52.712Z,743.00
2022-09-24T05:18:52.740Z,742.00
2022-09-24T05:19:52.680Z,744.00
2022-09-24T05:20:52.552Z,745.00
2022-09-24T05:21:52.738Z,743.00
2022-09-24T05:22:52.480Z,745.00
2022-09-24T05:23:52.609Z,747.00
2022-09-24T05:24:52.449Z,747.00
2022-09-24T05:25:52.590Z,745.00
2022-09-24T05:26:52.448Z,742.00
2022-09-24T05:27:52.537Z,743.00
2022-09-24T05:28:52.406Z,747.00
2022-09-24T05:29:52.500Z,751.00
2022-09-24T05:30:52.402Z,749.00
2022-09-24T05:31:52.601Z,748.00
2022-09-24T05:32:52.578Z,747.00
2022-09-24T05:33:52.445Z,745.00
2022-09-24T05:34:52.350Z,745.00
2022-09-24T05:35:52.409Z,743.00
2022-09-24T05:36:52.295Z,744.00
2022-09-24T05:37:52.449Z,745.00
2022-09-24T05:38:52.308Z,743.00
2022-09-24T05:39:52.394Z,745.00
2022-09-24T05:40:52.367Z,745.00
2022-09-24T05:41:52.328Z,746.00
2022-09-24T05:42:52.227Z,745.00
2022-09-24T05:43:52.366Z,745.00
2022-09-24T05:44:52.564Z,745.00
2022-09-24T05:45:52.329Z,746.00
2022-09-24T05:46:52.281Z,746.00
2022-09-24T05:47:52.357Z,746.00
2022-09-24T05:48:52.137Z,746.00
2022-09-24T05:49:52.367Z,741.00
2022-09-24T05:50:52.238Z,742.00
2022-09-24T05:51:52.217Z,741.00
2022-09-24T05:52:52.187Z,738.00
2022-09-24T05:53:52.107Z,740.00
2022-09-24T05:54:52.187Z,740.00
2022-09-24T05:55:52.128Z,739.00
2022-09-24T05:56:52.175Z,738.00
2022-09-24T05:57:52.136Z,736.00
2022-09-24T05:58:52.077Z,737.00
2022-09-24T05:59:52.067Z,739.00
2022-09-24T06:00:51.985Z,740.00
2022-09-24T06:01:52.175Z,742.00
2022-09-24T06:02:52.137Z,743.00
2022-09-24T06:03:52.003Z,742.00
2022-09-24T06:04:52.187Z,740.00
2022-09-24T06:05:52.039Z,739.00
2022-09-24T06:06:51.908Z,738.00
2022-09-24T06:07:52.006Z,737.00
2022-09-24T06:08:52.016Z,737.00
2022-09-24T06:09:51.995Z,736.00
2022-09-24T06:10:51.868Z,737.00
2022-09-24T06:11:51.986Z,735.00
2022-09-24T06:12:51.867Z,734.00
2022-09-24T06:13:51.897Z,737.00
2022-09-24T06:14:51.868Z,740.00
2022-09-24T06:15:51.912Z,741.00
2022-09-24T06:16:51.775Z,744.00
2022-09-24T06:17:51.950Z,742.00
2022-09-24T06:18:51.765Z,743.00
2022-09-24T06:19:51.899Z,744.00
2022-09-24T06:20:51.739Z,742.00
2022-09-24T06:21:52.824Z,740.00
2022-09-24T06:22:51.693Z,739.00
2022-09-24T06:23:52.755Z,737.00
2022-09-24T06:24:51.665Z,737.00
2022-09-24T06:25:51.847Z,739.00
2022-09-24T06:26:51.704Z,741.00
2022-09-24T06:27:52.685Z,742.00
2022-09-24T06:28:51.622Z,739.00
2022-09-24T06:29:51.702Z,738.00
2022-09-24T06:30:51.674Z,737.00
2022-09-24T06:31:51.760Z,737.00
2022-09-24T06:32:51.577Z,738.00
2022-09-24T06:33:51.583Z,738.00
2022-09-24T06:34:54.409Z,739.00
2022-09-24T06:35:52.632Z,740.00
2022-09-24T06:36:51.641Z,741.00
2022-09-24T06:37:51.494Z,741.00
2022-09-24T06:38:51.644Z,739.00
2022-09-24T06:39:51.473Z,739.00
2022-09-24T06:40:51.573Z,739.00
2022-09-24T06:41:51.468Z,736.00
2022-09-24T06:42:52.464Z,736.00
2022-09-24T06:43:51.427Z,733.00
2022-09-24T06:44:51.614Z,732.00
2022-09-24T06:45:51.392Z,732.00
2022-09-24T06:46:51.622Z,729.00
2022-09-24T06:47:51.363Z,730.00
2022-09-24T06:48:51.499Z,727.00
2022-09-24T06:49:51.342Z,729.00
2022-09-24T06:50:51.532Z,731.00
2022-09-24T06:51:51.313Z,730.00
2022-09-24T06:52:51.441Z,730.00
2022-09-24T06:53:51.342Z,730.00
2022-09-24T06:54:51.341Z,729.00
2022-09-24T06:55:51.390Z,729.00
2022-09-24T06:56:51.496Z,730.00
2022-09-24T06:57:51.290Z,727.00
2022-09-24T06:58:51.292Z,727.00
2022-09-24T06:59:51.292Z,728.00
2022-09-24T07:00:51.322Z,728.00
2022-09-24T07:01:51.371Z,724.00
2022-09-24T07:02:51.222Z,730.00
2022-09-24T07:03:51.180Z,733.00
2022-09-24T07:04:51.193Z,737.00
2022-09-24T07:05:51.239Z,739.00
2022-09-24T07:06:51.203Z,741.00
2022-09-24T07:07:51.100Z,742.00
2022-09-24T07:08:51.280Z,740.00
2022-09-24T07:09:51.082Z,741.00
2022-09-24T07:10:51.179Z,742.00
2022-09-24T07:11:51.043Z,744.00
2022-09-24T07:12:51.281Z,745.00
2022-09-24T07:13:51.020Z,747.00
2022-09-24T07:14:52.133Z,747.00
2022-09-24T07:15:51.142Z,743.00
2022-09-24T07:16:51.105Z,740.00
2022-09-24T07:17:50.969Z,739.00
2022-09-24T07:18:51.139Z,740.00
2022-09-24T07:19:51.093Z,738.00
2022-09-24T07:20:51.041Z,740.00
2022-09-24T07:21:50.923Z,739.00
2022-09-24T07:22:51.020Z,741.00
2022-09-24T07:23:55.103Z,738.00
2022-09-24T07:24:51.879Z,738.00
2022-09-24T07:25:53.038Z,739.00
2022-09-24T07:26:50.881Z,739.00
2022-09-24T07:28:11.963Z,738.00
2022-09-24T07:28:50.956Z,740.00
2022-09-24T07:29:50.852Z,740.00
2022-09-24T07:30:50.849Z,741.00
2022-09-24T07:31:51.091Z,740.00
2022-09-24T07:32:51.030Z,740.00
2022-09-24T07:33:50.823Z,738.00
2022-09-24T07:34:50.822Z,737.00
2022-09-24T07:35:50.792Z,736.00
2022-09-24T07:36:50.720Z,735.00
2022-09-24T07:37:50.960Z,731.00
2022-09-24T07:38:50.860Z,731.00
2022-09-24T07:39:50.782Z,732.00
2022-09-24T07:40:50.730Z,733.00
2022-09-24T07:41:50.887Z,738.00
2022-09-24T07:42:50.720Z,740.00
2022-09-24T07:43:50.751Z,743.00
2022-09-24T07:44:50.700Z,739.00
2022-09-24T07:45:50.670Z,739.00
2022-09-24T07:46:50.632Z,737.00
2022-09-24T07:47:51.604Z,736.00
2022-09-24T07:48:50.671Z,737.00
2022-09-24T07:49:50.610Z,736.00
2022-09-24T07:50:50.569Z,735.00
2022-09-24T07:51:50.614Z,733.00
2022-09-24T07:52:50.575Z,729.00
2022-09-24T07:53:50.612Z,733.00
2022-09-24T07:54:50.531Z,736.00
2022-09-24T07:55:50.530Z,741.00
2022-09-24T07:56:50.479Z,742.00
2022-09-24T07:57:50.619Z,740.00
2022-09-24T07:58:50.506Z,736.00
2022-09-24T07:59:50.499Z,735.00
2022-09-24T08:00:50.401Z,736.00
2022-09-24T08:01:50.605Z,731.00
2022-09-24T08:02:50.382Z,735.00
2022-09-24T08:03:50.453Z,737.00
2022-09-24T08:04:50.338Z,733.00
2022-09-24T08:05:50.425Z,746.00
2022-09-24T08:06:50.320Z,751.00
2022-09-24T08:07:50.321Z,749.00
2022-09-24T08:08:50.343Z,741.00
2022-09-24T08:09:50.420Z,737.00
2022-09-24T08:10:50.331Z,740.00
2022-09-24T08:11:50.351Z,737.00
2022-09-24T08:12:50.238Z,738.00
2022-09-24T08:13:50.362Z,735.00
2022-09-24T08:14:50.330Z,737.00
2022-09-24T08:15:50.330Z,732.00
2022-09-24T08:16:50.191Z,722.00
2022-09-24T08:17:50.189Z,723.00
2022-09-24T08:18:50.210Z,720.00
2022-09-24T08:19:50.200Z,724.00
2022-09-24T08:20:50.352Z,716.00
2022-09-24T08:21:50.243Z,717.00
2022-09-24T08:22:50.161Z,721.00
2022-09-24T08:23:50.131Z,725.00
2022-09-24T08:24:50.153Z,719.00
2022-09-24T08:25:50.140Z,721.00
2022-09-24T08:26:50.079Z,720.00
2022-09-24T08:27:50.092Z,718.00
2022-09-24T08:28:50.094Z,713.00
2022-09-24T08:29:50.070Z,715.00
2022-09-24T08:30:50.115Z,716.00
2022-09-24T08:31:51.116Z,717.00
2022-09-24T08:32:50.030Z,713.00
2022-09-24T08:33:50.002Z,717.00
2022-09-24T08:34:49.988Z,716.00
2022-09-24T08:35:50.081Z,716.00
2022-09-24T08:36:49.921Z,715.00
2022-09-24T08:37:50.062Z,714.00
2022-09-24T08:38:50.051Z,711.00
2022-09-24T08:39:49.971Z,708.00
2022-09-24T08:40:49.915Z,708.00
2022-09-24T08:41:50.131Z,710.00
2022-09-24T08:42:49.930Z,710.00
2022-09-24T08:43:49.861Z,714.00
2022-09-24T08:44:49.841Z,714.00
2022-09-24T08:45:50.901Z,713.00
2022-09-24T08:46:49.953Z,713.00
2022-09-24T08:47:49.810Z,713.00
2022-09-24T08:48:49.763Z,715.00
2022-09-24T08:49:50.940Z,715.00
2022-09-24T08:50:49.770Z,714.00
2022-09-24T08:51:49.841Z,713.00
2022-09-24T08:52:49.710Z,706.00
2022-09-24T08:53:49.831Z,706.00
2022-09-24T08:54:49.680Z,707.00
2022-09-24T08:55:49.898Z,709.00
2022-09-24T08:56:49.681Z,711.00
2022-09-24T08:57:50.682Z,712.00
2022-09-24T08:58:49.682Z,712.00
2022-09-24T08:59:49.702Z,711.00
2022-09-24T09:00:49.604Z,714.00
2022-09-24T09:01:49.789Z,712.00
2022-09-24T09:02:49.673Z,712.00
2022-09-24T09:03:49.625Z,714.00
2022-09-24T09:04:49.559Z,715.00
2022-09-24T09:05:49.845Z,712.00
2022-09-24T09:06:49.524Z,713.00
2022-09-24T09:07:49.521Z,712.00
2022-09-24T09:09:06.386Z,710.00
2022-09-24T09:09:50.480Z,709.00
2022-09-24T09:10:49.503Z,708.00
2022-09-24T09:11:49.669Z,709.00
2022-09-24T09:12:49.430Z,707.00
2022-09-24T09:13:49.472Z,708.00
2022-09-24T09:14:49.431Z,707.00
2022-09-24T09:15:50.554Z,706.00
2022-09-24T09:16:49.531Z,706.00
2022-09-24T09:17:49.481Z,707.00
2022-09-24T09:18:49.360Z,705.00
2022-09-24T09:19:53.728Z,706.00
2022-09-24T09:20:49.434Z,715.00
2022-09-24T09:21:49.421Z,739.00
2022-09-24T09:22:49.301Z,728.00
2022-09-24T09:23:49.386Z,722.00
2022-09-24T09:24:49.392Z,702.00
2022-09-24T09:25:49.341Z,710.00
2022-09-24T09:26:49.401Z,708.00
2022-09-24T09:27:49.422Z,712.00
2022-09-24T09:28:49.230Z,710.00
2022-09-24T09:29:49.371Z,709.00
2022-09-24T09:30:49.289Z,714.00
2022-09-24T09:31:53.868Z,717.00
2022-09-24T09:32:50.200Z,716.00
2022-09-24T09:33:49.204Z,715.00
2022-09-24T09:34:49.192Z,716.00
2022-09-24T09:35:49.285Z,716.00
2022-09-24T09:36:49.152Z,715.00
2022-09-24T09:37:49.128Z,711.00
2022-09-24T09:38:49.243Z,711.00
2022-09-24T09:39:49.145Z,768.00
2022-09-24T09:40:49.142Z,729.00
2022-09-24T09:41:49.191Z,715.00
2022-09-24T09:42:49.043Z,714.00
2022-09-24T09:43:49.070Z,798.00
2022-09-24T09:44:49.211Z,725.00
2022-09-24T09:45:49.102Z,734.00
2022-09-24T09:46:49.255Z,713.00
2022-09-24T09:47:49.032Z,712.00
2022-09-24T09:48:48.981Z,710.00
2022-09-24T09:49:49.030Z,705.00
2022-09-24T09:50:49.073Z,705.00
2022-09-24T09:51:49.025Z,708.00
2022-09-24T09:52:48.913Z,716.00
2022-09-24T09:53:49.063Z,713.00
2022-09-24T09:54:48.900Z,717.00
2022-09-24T09:55:48.981Z,714.00
2022-09-24T09:56:48.872Z,718.00
2022-09-24T09:57:49.904Z,715.00
2022-09-24T09:58:48.883Z,718.00
2022-09-24T09:59:48.921Z,718.00
2022-09-24T10:00:48.845Z,713.00
2022-09-24T10:01:48.947Z,707.00
2022-09-24T10:02:49.000Z,706.00
2022-09-24T10:03:48.813Z,707.00
2022-09-24T10:04:51.964Z,706.00
2022-09-24T10:05:48.925Z,707.00
2022-09-24T10:06:48.726Z,707.00
2022-09-24T10:07:48.814Z,704.00
2022-09-24T10:08:48.737Z,713.00
2022-09-24T10:09:48.783Z,703.00
2022-09-24T10:10:48.672Z,700.00
2022-09-24T10:11:49.792Z,705.00
2022-09-24T10:12:48.673Z,709.00
2022-09-24T10:13:48.720Z,708.00
2022-09-24T10:14:48.686Z,705.00
2022-09-24T10:15:48.830Z,700.00
2022-09-24T10:16:48.726Z,705.00
2022-09-24T10:17:48.603Z,716.00
2022-09-24T10:18:48.774Z,745.00
2022-09-24T10:19:48.621Z,717.00
2022-09-24T10:20:48.650Z,712.00
2022-09-24T10:21:48.523Z,706.00
2022-09-24T10:22:48.735Z,706.00
2022-09-24T10:23:48.563Z,707.00
2022-09-24T10:24:48.488Z,707.00
2022-09-24T10:25:48.568Z,706.00
2022-09-24T10:26:48.644Z,707.00
2022-09-24T10:27:48.465Z,710.00
2022-09-24T10:28:48.433Z,708.00
2022-09-24T10:29:48.501Z,708.00
2022-09-24T10:30:48.474Z,707.00
2022-09-24T10:31:48.510Z,704.00
2022-09-24T10:32:48.407Z,710.00
2022-09-24T10:33:48.484Z,794.00
2022-09-24T10:34:48.364Z,831.00
2022-09-24T10:35:48.424Z,741.00
2022-09-24T10:36:48.423Z,712.00
2022-09-24T10:37:48.464Z,710.00
2022-09-24T10:38:48.364Z,702.00
2022-09-24T10:39:48.354Z,711.00
2022-09-24T10:40:48.479Z,717.00
2022-09-24T10:41:48.703Z,716.00
2022-09-24T10:42:48.244Z,715.00
2022-09-24T10:43:50.376Z,712.00
2022-09-24T10:44:52.721Z,749.00
2022-09-24T10:45:48.305Z,797.00
2022-09-24T10:46:48.442Z,737.00
2022-09-24T10:47:48.175Z,732.00
2022-09-24T10:48:49.234Z,780.00
2022-09-24T10:49:48.224Z,730.00
2022-09-24T10:50:48.176Z,773.00
2022-09-24T10:51:48.136Z,823.00
2022-09-24T10:52:48.235Z,813.00
2022-09-24T10:53:48.108Z,816.00
2022-09-24T10:54:48.245Z,807.00
2022-09-24T10:55:48.275Z,711.00
2022-09-24T10:56:48.115Z,700.00
2022-09-24T10:57:48.051Z,704.00
2022-09-24T10:58:48.084Z,702.00
2022-09-24T10:59:48.017Z,700.00
2022-09-24T11:00:48.188Z,698.00
2022-09-24T11:01:48.136Z,701.00
2022-09-24T11:02:48.077Z,707.00
2022-09-24T11:03:48.068Z,702.00
2022-09-24T11:04:48.034Z,704.00
2022-09-24T11:05:48.106Z,701.00
2022-09-24T11:06:48.036Z,699.00
2022-09-24T11:07:47.909Z,700.00
2022-09-24T11:08:48.084Z,699.00
2022-09-24T11:09:47.886Z,697.00
2022-09-24T11:10:48.035Z,695.00
2022-09-24T11:11:47.967Z,696.00
2022-09-24T11:12:47.884Z,696.00
2022-09-24T11:13:51.191Z,696.00
2022-09-24T11:14:48.006Z,700.00
2022-09-24T11:15:47.940Z,698.00
2022-09-24T11:16:47.783Z,697.00
2022-09-24T11:17:47.919Z,699.00
2022-09-24T11:18:47.797Z,698.00
2022-09-24T11:19:47.748Z,757.00
2022-09-24T11:20:47.799Z,818.00
2022-09-24T11:21:47.811Z,834.00
2022-09-24T11:22:47.797Z,747.00
2022-09-24T11:23:47.748Z,759.00
2022-09-24T11:24:47.706Z,718.00
2022-09-24T11:25:47.785Z,774.00
2022-09-24T11:26:47.677Z,711.00
2022-09-24T11:27:47.688Z,702.00
2022-09-24T11:28:47.687Z,757.00
2022-09-24T11:29:47.697Z,839.00
2022-09-24T11:30:47.598Z,701.00
2022-09-24T11:31:47.691Z,699.00
2022-09-24T11:32:47.802Z,697.00
2022-09-24T11:33:47.668Z,695.00
2022-09-24T11:34:47.541Z,693.00
2022-09-24T11:35:47.630Z,665.00
2022-09-24T11:36:47.555Z,706.00
2022-09-24T11:37:47.588Z,702.00
2022-09-24T11:38:47.700Z,700.00
2022-09-24T11:39:47.620Z,696.00
2022-09-24T11:40:47.509Z,702.00
2022-09-24T11:41:47.478Z,694.00
2022-09-24T11:42:47.537Z,697.00
2022-09-24T11:43:47.489Z,691.00
2022-09-24T11:44:47.439Z,697.00
2022-09-24T11:45:47.603Z,690.00
2022-09-24T11:46:47.590Z,696.00
2022-09-24T11:47:47.466Z,689.00
2022-09-24T11:48:47.366Z,688.00
2022-09-24T11:49:48.456Z,689.00
2022-09-24T11:50:48.169Z,692.00
2022-09-24T11:51:47.450Z,693.00
2022-09-24T11:52:47.310Z,691.00
2022-09-24T11:53:47.359Z,687.00
2022-09-24T11:54:47.380Z,688.00
2022-09-24T11:55:47.370Z,692.00
2022-09-24T11:56:47.291Z,700.00
2022-09-24T11:57:49.405Z,704.00
2022-09-24T11:58:49.782Z,702.00
2022-09-24T11:59:48.190Z,700.00
2022-09-24T12:00:48.086Z,699.00
2022-09-24T12:01:47.830Z,701.00
2022-09-24T12:02:48.451Z,697.00
2022-09-24T12:03:47.778Z,704.00
2022-09-24T12:04:47.223Z,709.00
2022-09-24T12:05:47.532Z,727.00
2022-09-24T12:06:47.307Z,708.00
2022-09-24T12:07:47.941Z,709.00
2022-09-24T12:08:48.070Z,822.00
2022-09-24T12:09:49.781Z,835.00
2022-09-24T12:10:47.847Z,731.00
2022-09-24T12:11:47.859Z,718.00
2022-09-24T12:12:48.497Z,711.00
2022-09-24T12:13:47.809Z,705.00
2022-09-24T12:14:48.851Z,708.00
2022-09-24T12:15:48.298Z,710.00
2022-09-24T12:16:47.644Z,746.00
2022-09-24T12:17:47.297Z,783.00
2022-09-24T12:18:47.438Z,749.00
2022-09-24T12:19:48.106Z,823.00
2022-09-24T12:20:47.520Z,813.00
2022-09-24T12:21:48.385Z,735.00
2022-09-24T12:22:47.921Z,707.00
2022-09-24T12:23:49.335Z,710.00
2022-09-24T12:24:47.298Z,712.00
2022-09-24T12:25:47.097Z,709.00
2022-09-24T12:26:47.687Z,704.00
2022-09-24T12:27:47.889Z,709.00
2022-09-24T12:28:49.131Z,706.00